sensor_id;sensor_type;location;lat;lon;timestamp;temperature;humidity
62555;DHT22;48610;52.144;8.624;2022-10-13T00:01:50;9.20;99.90
62555;DHT22;48610;52.144;8.624;2022-10-13T00:04:51;9.20;99.90
62555;DHT22;48610;52.144;8.624;2022-10-13T00:07:51;9.10;99.90
62555;DHT22;48610;52.144;8.624;2022-10-13T00:10:52;9.00;99.90
62555;DHT22;48610;52.144;8.624;2022-10-13T00:13:58;9.00;99.90
62555;DHT22;48610;52.144;8.624;2022-10-13T00:17:00;9.00;99.90
62555;DHT22;48610;52.144;8.624;2022-10-13T00:20:01;9.00;99.90
62555;DHT22;48610;52.144;8.624;2022-10-13T00:23:02;8.90;99.90
62555;DHT22;48610;52.144;8.624;2022-10-13T00:26:05;8.80;99.90
62555;DHT22;48610;52.144;8.624;2022-10-13T00:29:06;8.80;99.90
62555;DHT22;48610;52.144;8.624;2022-10-13T00:32:06;8.80;99.90
62555;DHT22;48610;52.144;8.624;2022-10-13T00:35:07;8.70;99.90
62555;DHT22;48610;52.144;8.624;2022-10-13T00:38:09;8.80;99.90
62555;DHT22;48610;52.144;8.624;2022-10-13T00:41:09;8.70;99.90
62555;DHT22;48610;52.144;8.624;2022-10-13T00:47:56;8.70;99.90
62555;DHT22;48610;52.144;8.624;2022-10-13T00:50:58;8.70;99.90
62555;DHT22;48610;52.144;8.624;2022-10-13T00:53:59;8.70;99.90
62555;DHT22;48610;52.144;8.624;2022-10-13T00:57:02;8.60;99.90
62555;DHT22;48610;52.144;8.624;2022-10-13T01:00:04;8.60;99.90
62555;DHT22;48610;52.144;8.624;2022-10-13T01:03:05;8.60;99.90
62555;DHT22;48610;52.144;8.624;2022-10-13T01:06:06;8.50;99.90
62555;DHT22;48610;52.144;8.624;2022-10-13T01:09:07;8.50;99.90
62555;DHT22;48610;52.144;8.624;2022-10-13T01:15:29;8.60;99.90
62555;DHT22;48610;52.144;8.624;2022-10-13T01:25:18;8.40;99.90
62555;DHT22;48610;52.144;8.624;2022-10-13T01:28:43;8.50;99.90
62555;DHT22;48610;52.144;8.624;2022-10-13T01:32:22;8.40;99.90
62555;DHT22;48610;52.144;8.624;2022-10-13T01:39:00;8.20;99.90
62555;DHT22;48610;52.144;8.624;2022-10-13T01:42:10;8.30;99.90
62555;DHT22;48610;52.144;8.624;2022-10-13T01:45:15;8.20;99.90
62555;DHT22;48610;52.144;8.624;2022-10-13T01:48:18;8.20;99.90
62555;DHT22;48610;52.144;8.624;2022-10-13T01:51:21;8.30;99.90
62555;DHT22;48610;52.144;8.624;2022-10-13T01:54:22;8.20;99.90
62555;DHT22;48610;52.144;8.624;2022-10-13T01:57:33;8.30;99.90
62555;DHT22;48610;52.144;8.624;2022-10-13T02:00:42;8.30;99.90
62555;DHT22;48610;52.144;8.624;2022-10-13T02:07:32;8.30;99.90
62555;DHT22;48610;52.144;8.624;2022-10-13T02:11:31;8.20;99.90
62555;DHT22;48610;52.144;8.624;2022-10-13T02:14:22;8.20;99.90
62555;DHT22;48610;52.144;8.624;2022-10-13T02:17:25;8.30;99.90
62555;DHT22;48610;52.144;8.624;2022-10-13T02:20:27;8.40;99.90
62555;DHT22;48610;52.144;8.624;2022-10-13T02:23:28;8.50;99.90
62555;DHT22;48610;52.144;8.624;2022-10-13T02:26:32;8.50;99.90
62555;DHT22;48610;52.144;8.624;2022-10-13T02:29:34;8.50;99.90
62555;DHT22;48610;52.144;8.624;2022-10-13T02:32:48;8.60;99.90
62555;DHT22;48610;52.144;8.624;2022-10-13T02:35:48;8.60;99.90
62555;DHT22;48610;52.144;8.624;2022-10-13T02:38:49;8.60;99.90
62555;DHT22;48610;52.144;8.624;2022-10-13T02:41:50;8.60;99.90
62555;DHT22;48610;52.144;8.624;2022-10-13T02:44:51;8.60;99.90
62555;DHT22;48610;52.144;8.624;2022-10-13T02:47:51;8.60;99.90
62555;DHT22;48610;52.144;8.624;2022-10-13T02:50:52;8.40;99.90
62555;DHT22;48610;52.144;8.624;2022-10-13T02:53:53;8.40;99.90
62555;DHT22;48610;52.144;8.624;2022-10-13T02:56:54;8.50;99.90
62555;DHT22;48610;52.144;8.624;2022-10-13T02:59:55;8.60;99.90
62555;DHT22;48610;52.144;8.624;2022-10-13T03:02:55;8.60;99.90
62555;DHT22;48610;52.144;8.624;2022-10-13T03:05:56;8.80;99.90
62555;DHT22;48610;52.144;8.624;2022-10-13T03:08:57;8.90;99.90
62555;DHT22;48610;52.144;8.624;2022-10-13T03:11:58;8.90;99.90
62555;DHT22;48610;52.144;8.624;2022-10-13T03:14:59;8.90;99.90
62555;DHT22;48610;52.144;8.624;2022-10-13T03:18:00;9.00;99.90
62555;DHT22;48610;52.144;8.624;2022-10-13T03:21:03;9.00;99.90
62555;DHT22;48610;52.144;8.624;2022-10-13T03:24:04;9.10;99.90
62555;DHT22;48610;52.144;8.624;2022-10-13T03:27:05;9.10;99.90
62555;DHT22;48610;52.144;8.624;2022-10-13T03:30:06;9.00;99.90
62555;DHT22;48610;52.144;8.624;2022-10-13T03:33:07;8.90;99.90
62555;DHT22;48610;52.144;8.624;2022-10-13T03:36:10;8.90;99.90
62555;DHT22;48610;52.144;8.624;2022-10-13T03:39:11;9.00;99.90
62555;DHT22;48610;52.144;8.624;2022-10-13T03:42:12;9.00;99.90
62555;DHT22;48610;52.144;8.624;2022-10-13T03:45:13;8.90;99.90
62555;DHT22;48610;52.144;8.624;2022-10-13T03:48:14;8.90;99.90
62555;DHT22;48610;52.144;8.624;2022-10-13T03:51:17;9.00;99.90
62555;DHT22;48610;52.144;8.624;2022-10-13T03:54:18;9.00;99.90
62555;DHT22;48610;52.144;8.624;2022-10-13T03:57:19;9.00;99.90
62555;DHT22;48610;52.144;8.624;2022-10-13T04:00:20;9.10;99.90
62555;DHT22;48610;52.144;8.624;2022-10-13T04:03:21;9.10;99.90
62555;DHT22;48610;52.144;8.624;2022-10-13T04:06:23;9.10;99.90
62555;DHT22;48610;52.144;8.624;2022-10-13T04:09:24;9.10;99.90
62555;DHT22;48610;52.144;8.624;2022-10-13T04:12:25;9.20;99.90
62555;DHT22;48610;52.144;8.624;2022-10-13T04:15:26;9.00;99.90
62555;DHT22;48610;52.144;8.624;2022-10-13T04:18:27;9.00;99.90
62555;DHT22;48610;52.144;8.624;2022-10-13T04:21:29;8.90;99.90
62555;DHT22;48610;52.144;8.624;2022-10-13T04:24:30;9.00;99.90
62555;DHT22;48610;52.144;8.624;2022-10-13T04:27:31;8.90;99.90
62555;DHT22;48610;52.144;8.624;2022-10-13T04:30:35;8.90;99.90
62555;DHT22;48610;52.144;8.624;2022-10-13T04:33:36;8.90;99.90
62555;DHT22;48610;52.144;8.624;2022-10-13T04:36:36;8.90;99.90
62555;DHT22;48610;52.144;8.624;2022-10-13T04:39:37;9.00;99.90
62555;DHT22;48610;52.144;8.624;2022-10-13T04:42:38;9.10;99.90
62555;DHT22;48610;52.144;8.624;2022-10-13T04:45:39;9.10;99.90
62555;DHT22;48610;52.144;8.624;2022-10-13T04:48:40;9.20;99.90
62555;DHT22;48610;52.144;8.624;2022-10-13T04:51:41;9.30;99.90
62555;DHT22;48610;52.144;8.624;2022-10-13T04:54:42;9.30;99.90
62555;DHT22;48610;52.144;8.624;2022-10-13T04:57:43;9.30;99.90
62555;DHT22;48610;52.144;8.624;2022-10-13T05:00:45;9.30;99.90
62555;DHT22;48610;52.144;8.624;2022-10-13T05:03:46;9.40;99.90
62555;DHT22;48610;52.144;8.624;2022-10-13T05:06:47;9.40;99.90
62555;DHT22;48610;52.144;8.624;2022-10-13T05:09:49;9.60;99.90
62555;DHT22;48610;52.144;8.624;2022-10-13T05:12:52;9.60;99.90
62555;DHT22;48610;52.144;8.624;2022-10-13T05:15:53;9.50;99.90
62555;DHT22;48610;52.144;8.624;2022-10-13T05:18:54;9.60;99.90
62555;DHT22;48610;52.144;8.624;2022-10-13T05:21:54;9.70;99.90
62555;DHT22;48610;52.144;8.624;2022-10-13T05:24:55;9.80;99.90
62555;DHT22;48610;52.144;8.624;2022-10-13T05:27:57;9.80;99.90
62555;DHT22;48610;52.144;8.624;2022-10-13T05:31:08;9.80;99.90
62555;DHT22;48610;52.144;8.624;2022-10-13T05:34:09;9.80;99.90
62555;DHT22;48610;52.144;8.624;2022-10-13T05:37:10;9.80;99.90
62555;DHT22;48610;52.144;8.624;2022-10-13T05:40:11;9.90;99.90
62555;DHT22;48610;52.144;8.624;2022-10-13T05:43:12;9.90;99.90
62555;DHT22;48610;52.144;8.624;2022-10-13T05:46:12;9.80;99.90
62555;DHT22;48610;52.144;8.624;2022-10-13T05:49:13;9.80;99.90
62555;DHT22;48610;52.144;8.624;2022-10-13T05:52:15;9.80;99.90
62555;DHT22;48610;52.144;8.624;2022-10-13T05:55:17;9.80;99.90
62555;DHT22;48610;52.144;8.624;2022-10-13T05:58:18;9.80;99.90
62555;DHT22;48610;52.144;8.624;2022-10-13T06:01:22;9.80;99.90
62555;DHT22;48610;52.144;8.624;2022-10-13T06:04:37;9.90;99.90
62555;DHT22;48610;52.144;8.624;2022-10-13T06:07:39;10.00;99.90
62555;DHT22;48610;52.144;8.624;2022-10-13T06:10:40;10.00;99.90
62555;DHT22;48610;52.144;8.624;2022-10-13T06:13:41;10.00;99.90
62555;DHT22;48610;52.144;8.624;2022-10-13T06:16:42;10.00;99.90
62555;DHT22;48610;52.144;8.624;2022-10-13T18:20:11;13.70;99.90
62555;DHT22;48610;52.144;8.624;2022-10-13T18:23:11;13.80;99.90
62555;DHT22;48610;52.144;8.624;2022-10-13T18:26:15;13.80;99.90
62555;DHT22;48610;52.144;8.624;2022-10-13T18:29:16;14.00;99.90
62555;DHT22;48610;52.144;8.624;2022-10-13T18:32:16;14.00;99.90
62555;DHT22;48610;52.144;8.624;2022-10-13T18:35:17;14.00;99.90
62555;DHT22;48610;52.144;8.624;2022-10-13T18:38:18;14.00;99.90
62555;DHT22;48610;52.144;8.624;2022-10-13T18:41:21;13.90;99.90
62555;DHT22;48610;52.144;8.624;2022-10-13T18:44:22;14.00;99.90
62555;DHT22;48610;52.144;8.624;2022-10-13T18:47:23;14.00;99.90
62555;DHT22;48610;52.144;8.624;2022-10-13T18:50:24;13.90;99.90
62555;DHT22;48610;52.144;8.624;2022-10-13T18:53:24;14.00;99.90
62555;DHT22;48610;52.144;8.624;2022-10-13T18:56:27;14.00;99.90
62555;DHT22;48610;52.144;8.624;2022-10-13T18:59:28;13.90;99.90
62555;DHT22;48610;52.144;8.624;2022-10-13T19:02:29;13.80;99.90
62555;DHT22;48610;52.144;8.624;2022-10-13T19:05:29;13.80;99.90
62555;DHT22;48610;52.144;8.624;2022-10-13T19:08:30;13.80;99.90
62555;DHT22;48610;52.144;8.624;2022-10-13T19:11:32;13.90;99.90
62555;DHT22;48610;52.144;8.624;2022-10-13T19:14:32;13.90;99.90
62555;DHT22;48610;52.144;8.624;2022-10-13T19:17:33;13.90;99.90
62555;DHT22;48610;52.144;8.624;2022-10-13T19:20:34;13.80;99.90
62555;DHT22;48610;52.144;8.624;2022-10-13T19:23:35;13.70;99.90
62555;DHT22;48610;52.144;8.624;2022-10-13T19:26:36;13.90;99.90
62555;DHT22;48610;52.144;8.624;2022-10-13T19:29:38;13.90;99.90
62555;DHT22;48610;52.144;8.624;2022-10-13T19:32:39;13.90;99.90
62555;DHT22;48610;52.144;8.624;2022-10-13T19:35:49;13.80;99.90
62555;DHT22;48610;52.144;8.624;2022-10-13T19:38:51;13.70;99.90
62555;DHT22;48610;52.144;8.624;2022-10-13T19:41:54;13.70;99.90
62555;DHT22;48610;52.144;8.624;2022-10-13T19:44:55;13.70;99.90
62555;DHT22;48610;52.144;8.624;2022-10-13T19:47:55;13.70;99.90
62555;DHT22;48610;52.144;8.624;2022-10-13T19:50:59;13.80;99.90
62555;DHT22;48610;52.144;8.624;2022-10-13T19:54:00;14.00;99.90
62555;DHT22;48610;52.144;8.624;2022-10-13T19:57:01;13.80;99.90
62555;DHT22;48610;52.144;8.624;2022-10-13T20:00:03;13.80;99.90
62555;DHT22;48610;52.144;8.624;2022-10-13T20:03:04;13.90;99.90
62555;DHT22;48610;52.144;8.624;2022-10-13T20:06:05;13.80;99.90
62555;DHT22;48610;52.144;8.624;2022-10-13T20:09:06;13.80;99.90
62555;DHT22;48610;52.144;8.624;2022-10-13T20:12:07;13.80;99.90
62555;DHT22;48610;52.144;8.624;2022-10-13T20:15:08;13.60;99.90
62555;DHT22;48610;52.144;8.624;2022-10-13T20:18:09;13.70;99.90
62555;DHT22;48610;52.144;8.624;2022-10-13T20:21:12;13.70;99.90
62555;DHT22;48610;52.144;8.624;2022-10-13T20:24:13;13.80;99.90
62555;DHT22;48610;52.144;8.624;2022-10-13T20:27:13;13.80;99.90
62555;DHT22;48610;52.144;8.624;2022-10-13T20:30:14;13.80;99.90
62555;DHT22;48610;52.144;8.624;2022-10-13T20:33:15;13.80;99.90
62555;DHT22;48610;52.144;8.624;2022-10-13T20:36:16;13.80;99.90
62555;DHT22;48610;52.144;8.624;2022-10-13T20:39:17;13.70;99.90
62555;DHT22;48610;52.144;8.624;2022-10-13T20:42:18;13.70;99.90
62555;DHT22;48610;52.144;8.624;2022-10-13T20:45:19;13.70;99.90
62555;DHT22;48610;52.144;8.624;2022-10-13T20:48:20;13.60;99.90
62555;DHT22;48610;52.144;8.624;2022-10-13T20:51:21;13.60;99.90
62555;DHT22;48610;52.144;8.624;2022-10-13T20:54:22;13.70;99.90
62555;DHT22;48610;52.144;8.624;2022-10-13T20:57:23;13.60;99.90
62555;DHT22;48610;52.144;8.624;2022-10-13T21:00:24;13.60;99.90
62555;DHT22;48610;52.144;8.624;2022-10-13T21:03:25;13.60;99.90
62555;DHT22;48610;52.144;8.624;2022-10-13T21:06:26;13.60;99.90
62555;DHT22;48610;52.144;8.624;2022-10-13T21:09:27;13.70;99.90
62555;DHT22;48610;52.144;8.624;2022-10-13T21:12:27;13.80;99.90
62555;DHT22;48610;52.144;8.624;2022-10-13T21:15:28;13.50;99.90
62555;DHT22;48610;52.144;8.624;2022-10-13T21:18:29;13.50;99.90
62555;DHT22;48610;52.144;8.624;2022-10-13T21:21:31;13.50;99.90
62555;DHT22;48610;52.144;8.624;2022-10-13T21:24:32;13.50;99.90
62555;DHT22;48610;52.144;8.624;2022-10-13T21:27:33;13.40;99.90
62555;DHT22;48610;52.144;8.624;2022-10-13T21:30:34;13.50;99.90
62555;DHT22;48610;52.144;8.624;2022-10-13T21:33:36;13.50;99.90
62555;DHT22;48610;52.144;8.624;2022-10-13T21:36:37;13.60;99.90
62555;DHT22;48610;52.144;8.624;2022-10-13T21:39:41;13.60;99.90
62555;DHT22;48610;52.144;8.624;2022-10-13T21:42:42;13.50;99.90
62555;DHT22;48610;52.144;8.624;2022-10-13T21:45:42;13.60;99.90
62555;DHT22;48610;52.144;8.624;2022-10-13T21:48:45;13.50;99.90
62555;DHT22;48610;52.144;8.624;2022-10-13T21:51:46;13.50;99.90
62555;DHT22;48610;52.144;8.624;2022-10-13T21:54:50;13.50;99.90
62555;DHT22;48610;52.144;8.624;2022-10-13T21:57:51;13.50;99.90
62555;DHT22;48610;52.144;8.624;2022-10-13T22:00:52;13.60;99.90
62555;DHT22;48610;52.144;8.624;2022-10-13T22:03:59;13.70;99.90
62555;DHT22;48610;52.144;8.624;2022-10-13T22:07:00;13.60;99.90
62555;DHT22;48610;52.144;8.624;2022-10-13T22:10:01;13.40;99.90
62555;DHT22;48610;52.144;8.624;2022-10-13T22:13:02;13.30;99.90
62555;DHT22;48610;52.144;8.624;2022-10-13T22:16:08;13.40;99.90
62555;DHT22;48610;52.144;8.624;2022-10-13T22:19:09;13.50;99.90
62555;DHT22;48610;52.144;8.624;2022-10-13T22:22:10;13.50;99.90
62555;DHT22;48610;52.144;8.624;2022-10-13T22:25:10;13.70;99.90
62555;DHT22;48610;52.144;8.624;2022-10-13T22:28:11;13.60;99.90
62555;DHT22;48610;52.144;8.624;2022-10-13T22:31:12;13.60;99.90
62555;DHT22;48610;52.144;8.624;2022-10-13T22:34:14;13.50;99.90
62555;DHT22;48610;52.144;8.624;2022-10-13T22:37:14;13.60;99.90
62555;DHT22;48610;52.144;8.624;2022-10-13T22:40:15;13.40;99.90
62555;DHT22;48610;52.144;8.624;2022-10-13T22:43:16;13.30;99.90
62555;DHT22;48610;52.144;8.624;2022-10-13T22:46:18;13.40;99.90
62555;DHT22;48610;52.144;8.624;2022-10-13T22:49:19;13.40;99.90
62555;DHT22;48610;52.144;8.624;2022-10-13T22:52:19;13.30;99.90
62555;DHT22;48610;52.144;8.624;2022-10-13T22:55:20;13.30;99.90
62555;DHT22;48610;52.144;8.624;2022-10-13T22:58:21;13.40;99.90
62555;DHT22;48610;52.144;8.624;2022-10-13T23:01:22;13.40;99.90
62555;DHT22;48610;52.144;8.624;2022-10-13T23:04:23;13.50;99.90
62555;DHT22;48610;52.144;8.624;2022-10-13T23:07:23;13.60;99.90
62555;DHT22;48610;52.144;8.624;2022-10-13T23:10:24;13.60;99.90
62555;DHT22;48610;52.144;8.624;2022-10-13T23:13:25;13.50;99.90
62555;DHT22;48610;52.144;8.624;2022-10-13T23:16:26;13.60;99.90
62555;DHT22;48610;52.144;8.624;2022-10-13T23:19:27;13.60;99.90
62555;DHT22;48610;52.144;8.624;2022-10-13T23:22:27;13.60;99.90
62555;DHT22;48610;52.144;8.624;2022-10-13T23:25:28;13.60;99.90
62555;DHT22;48610;52.144;8.624;2022-10-13T23:28:29;13.60;99.90
62555;DHT22;48610;52.144;8.624;2022-10-13T23:31:30;13.60;99.90
62555;DHT22;48610;52.144;8.624;2022-10-13T23:34:31;13.60;99.90
62555;DHT22;48610;52.144;8.624;2022-10-13T23:37:31;13.60;99.90
62555;DHT22;48610;52.144;8.624;2022-10-13T23:40:32;13.50;99.90
62555;DHT22;48610;52.144;8.624;2022-10-13T23:43:33;13.60;99.90
62555;DHT22;48610;52.144;8.624;2022-10-13T23:46:34;13.50;99.90
62555;DHT22;48610;52.144;8.624;2022-10-13T23:49:35;13.50;99.90
62555;DHT22;48610;52.144;8.624;2022-10-13T23:52:35;13.40;99.90
62555;DHT22;48610;52.144;8.624;2022-10-13T23:55:37;13.50;99.90
62555;DHT22;48610;52.144;8.624;2022-10-13T23:58:39;13.50;99.90
